Time;durP1;ratioP1;P1;durP2;ratioP2;P2;SDS_P1;SDS_P2;PMS_P1;PMS_P2;Temp;Humidity;BMP_temperature;BMP_pressure;BME280_temperature;BME280_humidity;BME280_pressure;Samples;Min_cycle;Max_cycle;Signal;HPM_P1;HPM_P2
2023/05/24 00:01:25;;;;;;;1.85;1.15;;;15.70;56.10;;;;;;5028965;28;20386;-77
2023/05/24 00:03:51;;;;;;;3.10;1.42;;;15.70;56.20;;;;;;5013962;28;20030;-76
2023/05/24 00:06:20;;;;;;;4.53;1.60;;;15.70;56.20;;;;;;5013288;28;20038;-76
2023/05/24 00:08:46;;;;;;;2.28;1.40;;;15.70;56.20;;;;;;5014236;28;20045;-76
2023/05/24 00:11:12;;;;;;;1.77;1.20;;;15.60;56.20;;;;;;5012993;28;20068;-76
2023/05/24 00:13:38;;;;;;;3.63;1.50;;;15.60;56.30;;;;;;4996777;28;20073;-76
2023/05/24 00:16:03;;;;;;;3.47;1.60;;;15.60;56.30;;;;;;5045605;28;20514;-76
2023/05/24 00:18:30;;;;;;;2.78;1.30;;;15.50;56.30;;;;;;5012776;28;20042;-76
2023/05/24 00:20:57;;;;;;;3.40;1.67;;;15.50;56.30;;;;;;4996409;28;20036;-76
2023/05/24 00:23:24;;;;;;;3.33;1.48;;;15.50;56.40;;;;;;5012522;28;20044;-76
2023/05/24 00:25:50;;;;;;;3.20;1.58;;;15.50;56.50;;;;;;5028881;28;20034;-76
2023/05/24 00:28:16;;;;;;;3.20;1.52;;;15.40;56.40;;;;;;5012483;28;20030;-77
2023/05/24 00:30:44;;;;;;;3.13;1.52;;;15.40;56.50;;;;;;5013264;28;20042;-76
2023/05/24 00:33:10;;;;;;;3.45;1.40;;;15.40;56.60;;;;;;5012751;28;20547;-76
2023/05/24 00:35:35;;;;;;;4.10;1.60;;;15.40;56.60;;;;;;4996297;28;20089;-76
2023/05/24 00:38:01;;;;;;;3.33;1.60;;;15.30;56.60;;;;;;5013136;28;20544;-76
2023/05/24 00:40:27;;;;;;;3.13;1.55;;;15.30;56.70;;;;;;5012784;28;20422;-78
2023/05/24 00:42:53;;;;;;;2.00;1.27;;;15.30;56.70;;;;;;5014306;28;20415;-77
2023/05/24 00:45:19;;;;;;;2.65;1.40;;;15.20;56.70;;;;;;4996765;28;20096;-77
2023/05/24 00:47:45;;;;;;;2.25;1.30;;;15.20;56.70;;;;;;5012824;28;20091;-77
2023/05/24 00:50:13;;;;;;;4.47;1.50;;;15.20;56.80;;;;;;5013660;28;20038;-77
2023/05/24 00:52:41;;;;;;;3.35;1.30;;;15.20;56.80;;;;;;5013370;28;20474;-76
2023/05/24 00:55:07;;;;;;;2.75;1.30;;;15.20;56.90;;;;;;5013594;28;20104;-77
2023/05/24 00:57:35;;;;;;;4.68;1.60;;;15.10;56.80;;;;;;5013705;28;20152;-77
2023/05/24 01:00:04;;;;;;;4.03;1.70;;;15.10;56.90;;;;;;5012229;28;20067;-76
2023/05/24 01:02:31;;;;;;;2.08;1.33;;;15.10;56.90;;;;;;5028546;28;20467;-76
2023/05/24 01:04:58;;;;;;;2.55;1.45;;;15.00;56.90;;;;;;5014505;28;20084;-77
2023/05/24 01:07:25;;;;;;;3.15;1.58;;;15.00;56.90;;;;;;5000550;28;20486;-77
2023/05/24 01:10:13;;;;;;;3.42;1.40;;;15.00;57.00;;;;;;4999665;28;20037;-76
2023/05/24 01:13:11;;;;;;;2.60;1.45;;;15.00;57.10;;;;;;5051643;28;20052;-77
2023/05/24 01:15:52;;;;;;;4.03;1.35;;;14.90;57.00;;;;;;5034561;28;20037;-78
2023/05/24 01:18:30;;;;;;;3.67;1.60;;;14.90;57.00;;;;;;5017617;28;20034;-77
2023/05/24 01:21:22;;;;;;;2.17;1.65;;;14.90;57.10;;;;;;5050494;28;20034;-76
2023/05/24 01:24:13;;;;;;;3.28;1.42;;;14.80;57.10;;;;;;5007377;28;20049;-77
2023/05/24 01:26:50;;;;;;;2.33;1.48;;;14.80;57.10;;;;;;4999517;28;20026;-77
2023/05/24 01:29:16;;;;;;;2.20;1.33;;;14.70;57.10;;;;;;5016347;28;20050;-76
2023/05/24 01:31:42;;;;;;;2.63;1.40;;;14.70;57.10;;;;;;5032494;28;20374;-77
2023/05/24 01:34:10;;;;;;;2.80;1.40;;;14.60;57.10;;;;;;5015733;28;20033;-76
2023/05/24 01:36:36;;;;;;;2.15;1.52;;;14.60;57.20;;;;;;5015995;28;20034;-76
2023/05/24 01:39:04;;;;;;;2.85;1.40;;;14.60;57.20;;;;;;5015556;28;20040;-77
2023/05/24 01:41:56;;;;;;;3.35;1.50;;;14.60;57.20;;;;;;5015349;28;20053;-77
2023/05/24 01:44:51;;;;;;;3.08;1.55;;;14.60;57.40;;;;;;5016762;28;20121;-77
2023/05/24 01:47:38;;;;;;;4.45;1.40;;;14.60;57.30;;;;;;4999935;28;20536;-77
2023/05/24 01:50:17;;;;;;;2.15;1.30;;;14.50;57.30;;;;;;4999222;28;20060;-77
2023/05/24 01:52:44;;;;;;;3.35;1.38;;;14.50;57.40;;;;;;4999336;28;20517;-77
2023/05/24 01:55:13;;;;;;;3.15;1.30;;;14.40;57.30;;;;;;5016549;28;20034;-76
2023/05/24 01:57:44;;;;;;;3.60;1.85;;;14.40;57.30;;;;;;5016848;28;20083;-77
2023/05/24 02:00:15;;;;;;;3.30;1.50;;;14.40;57.40;;;;;;5031514;28;20026;-77
2023/05/24 02:02:41;;;;;;;3.55;1.35;;;14.40;57.40;;;;;;5015957;28;20045;-76
2023/05/24 02:05:10;;;;;;;3.10;1.45;;;14.40;57.40;;;;;;4999012;28;20151;-78
2023/05/24 02:07:36;;;;;;;3.53;1.85;;;14.30;57.40;;;;;;5016468;28;20105;-77
2023/05/24 02:10:02;;;;;;;2.85;1.55;;;14.30;57.40;;;;;;5015052;28;20141;-76
2023/05/24 02:12:28;;;;;;;2.22;1.20;;;14.30;57.50;;;;;;5031359;28;20022;-78
2023/05/24 02:14:56;;;;;;;4.50;1.60;;;14.20;57.50;;;;;;4998687;28;20128;-76
2023/05/24 02:17:24;;;;;;;3.03;1.38;;;14.20;57.50;;;;;;5047131;28;20084;-77
2023/05/24 02:19:50;;;;;;;3.33;1.58;;;14.20;57.50;;;;;;5047838;28;20034;-77
2023/05/24 02:22:16;;;;;;;2.97;1.50;;;14.20;57.50;;;;;;4998611;28;20096;-77
2023/05/24 02:24:42;;;;;;;2.70;1.60;;;14.20;57.50;;;;;;5015443;28;20478;-77
2023/05/24 02:27:08;;;;;;;3.03;1.55;;;14.10;57.50;;;;;;5014710;28;20022;-77
2023/05/24 02:29:34;;;;;;;3.05;1.67;;;14.10;57.60;;;;;;4998462;28;20049;-77
2023/05/24 02:32:00;;;;;;;2.47;1.58;;;14.10;57.60;;;;;;5014798;28;20029;-77
2023/05/24 02:34:25;;;;;;;3.90;1.70;;;14.10;57.70;;;;;;5015252;28;20041;-78
2023/05/24 02:36:53;;;;;;;1.77;1.40;;;14.00;57.60;;;;;;4982485;28;20030;-77
2023/05/24 02:39:19;;;;;;;2.92;1.50;;;14.00;57.70;;;;;;5014977;28;20064;-76
2023/05/24 02:41:45;;;;;;;2.97;1.67;;;14.00;57.70;;;;;;5047516;28;20078;-77
2023/05/24 02:44:10;;;;;;;3.17;1.50;;;14.00;57.70;;;;;;5014515;28;20553;-76
2023/05/24 02:46:36;;;;;;;4.10;2.03;;;13.90;57.70;;;;;;4998233;28;20033;-77
2023/05/24 02:49:03;;;;;;;2.55;1.50;;;13.90;57.70;;;;;;5015866;28;20034;-77
2023/05/24 02:51:31;;;;;;;3.08;1.58;;;13.90;57.80;;;;;;4998218;28;20113;-77
2023/05/24 02:53:57;;;;;;;3.50;1.83;;;13.80;57.80;;;;;;5015586;28;20494;-77
2023/05/24 02:56:25;;;;;;;2.72;1.52;;;13.80;57.80;;;;;;5048308;28;20038;-76
2023/05/24 02:58:53;;;;;;;3.05;1.60;;;13.80;57.80;;;;;;5046890;28;20065;-77
2023/05/24 03:01:20;;;;;;;3.38;1.70;;;13.80;57.80;;;;;;5014361;28;20034;-77
2023/05/24 03:03:46;;;;;;;2.22;1.48;;;13.80;57.80;;;;;;5014296;28;20092;-76
2023/05/24 03:06:12;;;;;;;3.75;1.73;;;13.80;58.50;;;;;;5015257;28;20037;-77
2023/05/24 03:08:40;;;;;;;3.03;1.55;;;13.70;57.80;;;;;;5030313;28;20033;-77
2023/05/24 03:11:06;;;;;;;2.70;1.60;;;13.70;57.90;;;;;;5014708;28;20040;-77
2023/05/24 03:13:33;;;;;;;2.45;1.50;;;13.70;57.90;;;;;;5014786;28;20036;-78
2023/05/24 03:15:59;;;;;;;3.17;1.70;;;13.70;57.90;;;;;;5015118;28;20030;-77
2023/05/24 03:18:25;;;;;;;4.10;1.90;;;13.60;57.90;;;;;;5046890;28;20056;-77
2023/05/24 03:20:52;;;;;;;2.72;1.80;;;13.60;58.00;;;;;;5047063;28;20038;-78
2023/05/24 03:23:18;;;;;;;2.60;1.70;;;13.60;58.00;;;;;;5014109;28;20341;-78
2023/05/24 03:25:44;;;;;;;2.70;1.42;;;13.60;58.00;;;;;;4982058;28;20087;-76
2023/05/24 03:28:13;;;;;;;3.45;1.55;;;13.50;58.00;;;;;;4996309;28;20124;-76
2023/05/24 03:30:39;;;;;;;3.88;1.83;;;13.50;58.00;;;;;;5013682;28;20050;-76
2023/05/24 03:33:05;;;;;;;2.67;1.80;;;13.50;58.00;;;;;;5030125;28;20021;-76
2023/05/24 03:35:31;;;;;;;2.70;1.67;;;13.50;58.10;;;;;;5047352;28;20510;-76
2023/05/24 03:37:57;;;;;;;3.00;2.05;;;13.50;58.10;;;;;;4997024;28;20050;-75
2023/05/24 03:40:24;;;;;;;3.33;1.90;;;13.50;58.10;;;;;;4997192;28;20066;-76
2023/05/24 03:42:53;;;;;;;2.22;1.60;;;13.40;58.10;;;;;;5014924;28;20127;-77
2023/05/24 03:45:28;;;;;;;3.17;1.67;;;13.40;58.40;;;;;;5015342;28;20026;-76
2023/05/24 03:47:54;;;;;;;3.03;1.60;;;13.40;58.20;;;;;;4997061;28;20029;-77
2023/05/24 03:50:19;;;;;;;3.42;1.70;;;13.40;58.20;;;;;;5012954;28;20038;-76
2023/05/24 03:52:46;;;;;;;2.83;1.77;;;13.30;58.20;;;;;;5013349;28;20026;-76
2023/05/24 03:55:13;;;;;;;4.28;2.17;;;13.30;58.20;;;;;;5013087;28;20034;-76
2023/05/24 03:57:41;;;;;;;3.10;1.80;;;13.30;58.30;;;;;;5046302;28;20467;-76
2023/05/24 04:00:08;;;;;;;2.95;1.92;;;13.30;58.30;;;;;;5049277;28;20429;-76
2023/05/24 04:02:39;;;;;;;2.63;1.67;;;13.30;58.30;;;;;;5017269;28;20137;-76
2023/05/24 04:05:09;;;;;;;3.50;1.80;;;13.20;58.30;;;;;;5016121;28;20080;-76
2023/05/24 04:07:38;;;;;;;3.13;1.83;;;13.20;58.30;;;;;;5014535;28;20026;-76
2023/05/24 04:10:05;;;;;;;3.47;1.85;;;13.20;58.40;;;;;;5014568;28;20041;-76
2023/05/24 04:12:32;;;;;;;3.60;2.05;;;13.20;58.40;;;;;;5029381;28;20502;-77
2023/05/24 04:15:01;;;;;;;3.30;1.80;;;13.10;58.40;;;;;;5013118;28;20029;-76
2023/05/24 04:17:29;;;;;;;3.15;1.90;;;13.10;58.50;;;;;;5029170;28;20027;-76
2023/05/24 04:19:55;;;;;;;2.92;1.77;;;13.10;58.40;;;;;;4997222;28;20030;-77
2023/05/24 04:22:21;;;;;;;2.13;1.60;;;13.20;58.60;;;;;;5013004;28;20415;-78
2023/05/24 04:24:48;;;;;;;3.30;1.90;;;13.10;58.50;;;;;;5029227;28;20072;-77
2023/05/24 04:27:14;;;;;;;3.83;2.10;;;13.10;58.50;;;;;;5045737;28;20501;-75
2023/05/24 04:29:40;;;;;;;3.83;1.90;;;13.10;58.50;;;;;;5012600;28;20041;-76
2023/05/24 04:32:08;;;;;;;4.20;1.92;;;13.10;58.50;;;;;;4997137;28;20471;-76
2023/05/24 04:34:34;;;;;;;3.00;1.80;;;13.10;58.60;;;;;;5028819;28;20121;-77
2023/05/24 04:37:03;;;;;;;4.72;2.03;;;13.00;58.50;;;;;;5012916;28;20038;-76
2023/05/24 04:39:29;;;;;;;2.45;1.77;;;13.00;58.60;;;;;;5028803;28;20030;-76
2023/05/24 04:41:56;;;;;;;3.15;1.95;;;13.00;58.60;;;;;;5046493;28;20038;-82
2023/05/24 04:44:23;;;;;;;4.40;2.17;;;13.00;58.70;;;;;;5012851;28;20129;-77
2023/05/24 04:46:49;;;;;;;3.90;2.17;;;13.00;58.70;;;;;;4996332;28;20026;-76
2023/05/24 04:49:15;;;;;;;4.38;2.00;;;13.00;58.70;;;;;;5045673;28;20057;-77
2023/05/24 04:51:41;;;;;;;3.72;1.98;;;13.00;58.70;;;;;;5012247;28;20034;-77
2023/05/24 04:54:10;;;;;;;3.92;2.35;;;12.90;58.70;;;;;;5028603;28;20041;-77
2023/05/24 04:56:37;;;;;;;3.38;2.17;;;12.90;58.70;;;;;;5013884;28;20026;-77
2023/05/24 04:59:07;;;;;;;3.72;2.13;;;13.00;58.80;;;;;;5028651;28;20061;-77
2023/05/24 05:01:33;;;;;;;3.00;1.88;;;12.90;58.80;;;;;;5013641;28;20029;-77
2023/05/24 05:03:59;;;;;;;3.05;1.77;;;12.90;58.80;;;;;;4995685;28;20041;-77
2023/05/24 05:06:25;;;;;;;3.33;1.88;;;12.90;58.80;;;;;;5013452;28;20079;-77
2023/05/24 05:08:51;;;;;;;3.15;2.08;;;12.90;58.90;;;;;;5012803;28;20117;-77
2023/05/24 05:11:19;;;;;;;2.17;1.70;;;12.90;58.90;;;;;;5013154;28;20111;-77
2023/05/24 05:13:45;;;;;;;3.83;2.10;;;12.90;58.90;;;;;;5013602;28;20129;-78
2023/05/24 05:16:10;;;;;;;4.03;2.20;;;12.90;58.90;;;;;;4995853;28;20053;-77
2023/05/24 05:18:36;;;;;;;3.90;2.35;;;12.90;58.90;;;;;;5012408;28;20116;-78
2023/05/24 05:21:02;;;;;;;3.45;1.88;;;12.90;58.90;;;;;;4995875;28;20040;-78
2023/05/24 05:23:29;;;;;;;5.47;2.35;;;12.90;59.00;;;;;;5012306;28;20034;-78
2023/05/24 05:25:55;;;;;;;4.22;2.10;;;12.90;59.00;;;;;;5028885;28;20098;-79
2023/05/24 05:28:21;;;;;;;5.07;2.40;;;12.90;59.00;;;;;;5012593;28;20049;-78
2023/05/24 05:30:47;;;;;;;3.55;1.90;;;12.90;59.00;;;;;;5045762;28;20034;-78
2023/05/24 05:33:13;;;;;;;3.28;2.10;;;12.90;59.00;;;;;;4995743;28;20073;-77
2023/05/24 05:35:38;;;;;;;3.40;2.30;;;12.90;59.10;;;;;;5028766;28;20026;-78
2023/05/24 05:38:04;;;;;;;4.22;2.30;;;12.90;59.10;;;;;;4996583;28;20113;-78
2023/05/24 05:40:30;;;;;;;3.97;2.33;;;12.90;59.10;;;;;;4995479;28;20509;-78
2023/05/24 05:42:56;;;;;;;4.38;2.20;;;12.90;59.10;;;;;;5013607;28;20210;-78
2023/05/24 05:45:22;;;;;;;4.65;2.63;;;12.90;59.10;;;;;;4995855;28;20053;-77
2023/05/24 05:47:48;;;;;;;5.35;2.08;;;13.00;59.20;;;;;;5013051;28;20026;-77
2023/05/24 05:50:14;;;;;;;4.70;2.60;;;13.00;59.20;;;;;;4995496;28;20100;-77
2023/05/24 05:52:40;;;;;;;3.08;2.08;;;13.00;59.20;;;;;;4998507;28;20037;-78
2023/05/24 05:55:06;;;;;;;5.47;2.53;;;13.00;59.20;;;;;;5015438;28;20038;-78
2023/05/24 05:57:32;;;;;;;3.90;2.33;;;13.00;59.30;;;;;;5015229;28;20391;-78
2023/05/24 05:59:58;;;;;;;4.40;2.17;;;13.00;59.30;;;;;;5015539;28;20034;-78
2023/05/24 06:02:23;;;;;;;3.58;1.98;;;13.00;59.30;;;;;;4998941;28;20398;-78
2023/05/24 06:04:49;;;;;;;3.88;2.25;;;13.00;59.30;;;;;;4982646;28;20036;-78
2023/05/24 06:07:15;;;;;;;4.10;2.45;;;13.00;59.90;;;;;;5015136;28;20022;-78
2023/05/24 06:09:41;;;;;;;4.18;2.30;;;13.10;59.40;;;;;;4998778;28;20064;-78
2023/05/24 06:12:07;;;;;;;3.38;2.17;;;13.10;59.40;;;;;;4999221;28;20088;-78
2023/05/24 06:14:33;;;;;;;3.45;2.25;;;13.10;59.40;;;;;;5015786;28;20036;-78
2023/05/24 06:16:59;;;;;;;4.00;2.35;;;13.10;59.50;;;;;;5016028;28;20085;-78
2023/05/24 06:19:25;;;;;;;4.70;2.22;;;13.10;59.40;;;;;;5014848;28;20045;-78
2023/05/24 06:21:51;;;;;;;4.72;2.47;;;13.10;59.50;;;;;;5047888;28;20034;-78
2023/05/24 06:24:19;;;;;;;5.05;2.20;;;13.20;59.60;;;;;;5016080;28;20022;-78
2023/05/24 06:26:46;;;;;;;3.40;2.15;;;13.20;59.60;;;;;;5015285;28;20033;-79
2023/05/24 06:29:12;;;;;;;3.92;2.47;;;13.20;59.60;;;;;;5014920;28;20038;-78
2023/05/24 06:31:38;;;;;;;3.13;2.10;;;13.30;59.70;;;;;;5031210;28;20479;-79
2023/05/24 06:34:04;;;;;;;4.53;2.50;;;13.30;59.80;;;;;;5048711;28;20053;-80
2023/05/24 06:36:32;;;;;;;3.60;2.20;;;13.30;59.90;;;;;;4998503;28;20038;-78
2023/05/24 06:38:58;;;;;;;4.97;2.38;;;13.30;59.90;;;;;;5031081;28;20120;-77
2023/05/24 06:41:25;;;;;;;4.97;2.15;;;13.30;59.90;;;;;;5016643;28;20070;-77
2023/05/24 06:43:51;;;;;;;3.42;1.92;;;13.40;60.00;;;;;;5015881;28;20037;-78
2023/05/24 06:46:17;;;;;;;5.32;2.33;;;13.40;60.00;;;;;;5020785;28;20057;-77
2023/05/24 06:48:43;;;;;;;4.22;2.25;;;13.40;60.00;;;;;;5021189;28;20046;-78
2023/05/24 06:51:09;;;;;;;3.60;2.22;;;13.50;60.10;;;;;;5051785;28;20038;-77
2023/05/24 06:53:35;;;;;;;4.25;2.33;;;13.50;60.10;;;;;;5015747;28;20053;-78
2023/05/24 06:56:00;;;;;;;3.95;1.98;;;13.50;60.10;;;;;;4999396;28;20034;-78
2023/05/24 06:58:26;;;;;;;3.65;2.05;;;13.50;60.10;;;;;;5047444;28;20505;-77
2023/05/24 07:00:52;;;;;;;4.00;1.88;;;13.60;60.10;;;;;;5016177;28;20041;-78
2023/05/24 07:03:18;;;;;;;3.65;2.25;;;13.60;60.20;;;;;;5014163;28;20034;-78
2023/05/24 07:05:43;;;;;;;3.97;2.25;;;13.60;60.20;;;;;;4997684;28;20030;-78
2023/05/24 07:08:09;;;;;;;4.40;2.42;;;13.70;60.20;;;;;;5014471;28;20551;-78
2023/05/24 07:10:35;;;;;;;4.53;2.55;;;13.70;60.30;;;;;;5013985;28;20129;-78
2023/05/24 07:13:01;;;;;;;5.55;2.30;;;13.70;60.30;;;;;;5014321;28;20176;-78
2023/05/24 07:15:26;;;;;;;3.47;1.92;;;13.80;60.40;;;;;;5014194;28;20083;-78
2023/05/24 07:17:52;;;;;;;3.80;2.20;;;13.80;60.40;;;;;;4997504;28;20025;-77
2023/05/24 07:20:18;;;;;;;5.20;2.25;;;13.80;60.40;;;;;;4997712;28;20034;-78
2023/05/24 07:22:44;;;;;;;4.10;2.53;;;13.90;60.40;;;;;;5013824;28;20478;-78
2023/05/24 07:25:09;;;;;;;5.20;2.42;;;13.90;60.40;;;;;;4997422;28;20029;-79
2023/05/24 07:27:35;;;;;;;4.50;2.45;;;13.90;60.40;;;;;;5013501;28;20026;-78
2023/05/24 07:30:02;;;;;;;3.63;2.03;;;14.00;60.50;;;;;;5014858;28;20096;-78
2023/05/24 07:32:28;;;;;;;4.22;2.45;;;14.00;60.50;;;;;;5013372;28;20037;-78
2023/05/24 07:34:54;;;;;;;3.90;2.20;;;14.10;60.50;;;;;;5013284;28;20034;-78
2023/05/24 07:37:22;;;;;;;4.65;2.25;;;14.10;61.20;;;;;;4997121;28;20053;-78
2023/05/24 07:39:49;;;;;;;4.82;2.45;;;14.20;60.50;;;;;;5013693;28;20034;-78
2023/05/24 07:42:15;;;;;;;4.00;2.17;;;14.20;60.50;;;;;;5013364;28;20034;-78
2023/05/24 07:44:41;;;;;;;5.35;2.35;;;14.20;60.50;;;;;;5013163;28;20434;-78
2023/05/24 07:47:06;;;;;;;4.55;2.38;;;14.30;60.50;;;;;;5014823;28;20026;-79
2023/05/24 07:49:32;;;;;;;4.25;2.08;;;14.30;60.50;;;;;;5014164;28;20046;-78
2023/05/24 07:51:59;;;;;;;3.63;2.10;;;14.40;60.50;;;;;;5014175;28;20042;-78
2023/05/24 07:54:25;;;;;;;4.70;1.90;;;14.50;60.50;;;;;;5013281;28;20030;-78
2023/05/24 07:56:51;;;;;;;3.97;2.13;;;14.40;60.40;;;;;;5029700;28;20053;-78
2023/05/24 07:59:17;;;;;;;2.67;1.77;;;14.50;60.40;;;;;;5029240;28;20093;-78
2023/05/24 08:01:43;;;;;;;5.30;2.13;;;14.60;60.30;;;;;;4997340;28;20034;-79
2023/05/24 08:04:09;;;;;;;4.13;2.10;;;14.70;60.30;;;;;;4996741;28;20030;-78
2023/05/24 08:06:35;;;;;;;5.68;2.30;;;14.70;60.20;;;;;;5045751;28;20088;-78
2023/05/24 08:09:04;;;;;;;3.67;2.08;;;14.80;60.20;;;;;;4997217;28;20072;-78
2023/05/24 08:11:30;;;;;;;4.75;2.15;;;14.90;60.20;;;;;;5013894;28;20474;-77
2023/05/24 08:13:56;;;;;;;5.28;2.22;;;14.90;60.00;;;;;;5013046;28;20036;-77
2023/05/24 08:16:22;;;;;;;4.35;1.80;;;15.00;59.90;;;;;;5046723;28;20474;-78
2023/05/24 08:18:48;;;;;;;3.78;1.90;;;15.10;59.90;;;;;;5028974;28;20099;-79
2023/05/24 08:21:14;;;;;;;4.82;2.40;;;15.10;59.80;;;;;;5013168;28;20038;-77
2023/05/24 08:23:40;;;;;;;3.42;1.95;;;15.20;59.80;;;;;;5013918;28;20083;-78
2023/05/24 08:26:05;;;;;;;3.95;1.95;;;15.20;59.60;;;;;;5045644;28;20075;-79
2023/05/24 08:28:31;;;;;;;4.53;2.33;;;15.30;59.70;;;;;;4996707;28;20030;-79
2023/05/24 08:30:58;;;;;;;4.10;2.00;;;15.30;59.70;;;;;;5028787;28;20495;-78
2023/05/24 08:33:23;;;;;;;5.47;1.95;;;15.40;59.60;;;;;;4996273;28;20042;-78
2023/05/24 08:35:50;;;;;;;2.88;1.67;;;15.50;59.60;;;;;;5013589;28;20034;-78
2023/05/24 08:38:16;;;;;;;2.97;1.80;;;15.50;59.50;;;;;;5013233;28;20033;-78
2023/05/24 08:40:42;;;;;;;3.03;1.83;;;15.60;59.50;;;;;;5012682;28;20049;-78
2023/05/24 08:43:10;;;;;;;3.88;1.75;;;15.60;59.50;;;;;;5013814;28;20109;-78
2023/05/24 08:45:37;;;;;;;3.33;1.70;;;15.60;59.40;;;;;;5013804;28;20060;-78
2023/05/24 08:48:07;;;;;;;4.68;1.90;;;15.60;59.40;;;;;;5012237;28;20163;-77
2023/05/24 08:50:34;;;;;;;4.68;1.90;;;15.70;59.50;;;;;;5013378;28;20030;-78
2023/05/24 08:53:03;;;;;;;3.22;1.83;;;15.70;59.40;;;;;;5028755;28;20033;-77
2023/05/24 08:55:30;;;;;;;3.28;1.70;;;15.80;59.40;;;;;;5045500;28;20057;-78
2023/05/24 08:57:57;;;;;;;2.88;1.88;;;15.80;59.40;;;;;;5045042;28;20058;-78
2023/05/24 09:00:23;;;;;;;2.53;1.60;;;15.90;59.30;;;;;;5013280;28;20033;-78
2023/05/24 09:02:49;;;;;;;3.42;1.80;;;15.90;59.20;;;;;;5014316;28;20034;-78
2023/05/24 09:05:15;;;;;;;3.05;1.67;;;16.00;59.20;;;;;;5012455;28;20063;-78
2023/05/24 09:07:44;;;;;;;3.20;1.75;;;16.00;59.10;;;;;;5013267;28;20068;-78
2023/05/24 09:10:10;;;;;;;2.55;1.55;;;16.10;59.10;;;;;;5013103;28;20037;-77
2023/05/24 09:12:37;;;;;;;3.70;1.70;;;16.20;59.10;;;;;;4996611;28;20053;-77
2023/05/24 09:15:04;;;;;;;3.13;1.90;;;16.20;59.00;;;;;;5028803;28;20040;-79
2023/05/24 09:17:30;;;;;;;3.40;1.80;;;16.30;59.00;;;;;;5028818;28;20456;-77
2023/05/24 09:20:00;;;;;;;2.88;1.60;;;16.30;58.90;;;;;;5028880;28;20034;-78
2023/05/24 09:22:30;;;;;;;2.95;1.55;;;16.30;58.80;;;;;;5028455;28;20033;-78
2023/05/24 09:25:03;;;;;;;3.45;1.67;;;16.40;58.90;;;;;;5012751;28;20030;-78
2023/05/24 09:27:31;;;;;;;2.78;1.42;;;16.40;58.80;;;;;;5049376;28;20022;-78
2023/05/24 09:29:57;;;;;;;2.95;1.60;;;16.50;58.80;;;;;;5015931;28;20072;-78
2023/05/24 09:32:23;;;;;;;3.30;1.80;;;16.50;58.70;;;;;;5018214;28;20489;-78
2023/05/24 09:34:53;;;;;;;4.05;2.05;;;16.60;58.70;;;;;;5024322;28;20038;-77
2023/05/24 09:37:25;;;;;;;4.65;1.83;;;16.60;58.70;;;;;;5023825;28;20038;-78
2023/05/24 09:39:55;;;;;;;2.05;1.63;;;16.60;58.60;;;;;;5038015;28;20034;-78
2023/05/24 09:42:27;;;;;;;2.05;1.55;;;16.70;58.60;;;;;;5003685;28;20372;-77
2023/05/24 09:45:07;;;;;;;3.58;1.80;;;16.70;58.60;;;;;;5016302;28;20026;-78
2023/05/24 09:47:35;;;;;;;3.10;1.70;;;16.80;58.60;;;;;;5049041;28;20045;-78
2023/05/24 09:50:02;;;;;;;2.95;1.42;;;16.80;58.60;;;;;;5016465;28;20128;-78
2023/05/24 09:52:28;;;;;;;3.03;1.67;;;16.80;58.50;;;;;;5048725;28;20103;-78
2023/05/24 09:54:54;;;;;;;3.42;1.70;;;16.90;58.60;;;;;;5016801;28;20474;-78
2023/05/24 09:57:24;;;;;;;3.42;1.67;;;16.90;58.60;;;;;;5016925;28;20034;-78
2023/05/24 09:59:51;;;;;;;2.78;1.52;;;16.90;58.50;;;;;;4999801;28;20379;-78
2023/05/24 10:02:20;;;;;;;2.33;1.40;;;16.90;58.50;;;;;;5031634;28;20038;-78
2023/05/24 10:04:46;;;;;;;2.88;1.60;;;17.00;58.50;;;;;;5015369;28;20026;-78
2023/05/24 10:07:12;;;;;;;4.15;1.70;;;17.00;58.50;;;;;;4999238;28;20041;-78
2023/05/24 10:09:39;;;;;;;3.15;1.60;;;17.10;58.50;;;;;;5016477;28;20395;-78
2023/05/24 10:12:07;;;;;;;2.30;1.50;;;17.10;58.50;;;;;;4998858;28;20412;-78
2023/05/24 10:14:35;;;;;;;3.58;1.80;;;17.20;58.50;;;;;;4998804;28;20073;-78
2023/05/24 10:17:05;;;;;;;2.90;1.60;;;17.20;58.40;;;;;;5031474;28;20080;-78
2023/05/24 10:19:35;;;;;;;2.65;1.60;;;17.20;58.40;;;;;;5015129;28;20542;-78
2023/05/24 10:22:07;;;;;;;2.72;1.40;;;17.20;58.40;;;;;;5016521;28;20112;-78
2023/05/24 10:24:44;;;;;;;3.08;1.50;;;17.30;58.40;;;;;;5049542;28;20038;-78
2023/05/24 10:27:14;;;;;;;3.97;1.90;;;17.30;58.40;;;;;;5016375;28;20057;-78
2023/05/24 10:30:08;;;;;;;2.15;1.40;;;17.30;58.30;;;;;;5048136;28;20030;-76
2023/05/24 10:32:36;;;;;;;2.00;1.50;;;17.40;58.30;;;;;;5010900;28;20073;-76
2023/05/24 10:35:05;;;;;;;3.40;1.50;;;17.40;58.30;;;;;;5031699;28;20095;-77
2023/05/24 10:37:31;;;;;;;3.17;1.60;;;17.40;58.30;;;;;;5030718;28;20455;-78
2023/05/24 10:39:58;;;;;;;4.47;2.15;;;17.40;58.20;;;;;;5030968;28;20199;-78
2023/05/24 10:42:25;;;;;;;3.15;1.42;;;17.50;58.30;;;;;;5014483;28;20487;-78
2023/05/24 10:44:51;;;;;;;2.90;1.73;;;17.50;58.20;;;;;;5014270;28;20109;-78
2023/05/24 10:47:20;;;;;;;2.55;1.50;;;17.50;58.20;;;;;;5014440;28;20034;-78
2023/05/24 10:50:03;;;;;;;2.38;1.55;;;17.60;58.10;;;;;;5015302;28;20049;-78
2023/05/24 10:52:35;;;;;;;3.00;1.70;;;17.60;58.10;;;;;;5031484;28;20088;-78
2023/05/24 10:55:09;;;;;;;3.20;1.80;;;17.60;58.00;;;;;;5030567;28;20041;-78
2023/05/24 10:57:36;;;;;;;3.33;1.70;;;17.60;57.90;;;;;;5030387;28;20026;-78
2023/05/24 11:00:23;;;;;;;3.45;1.70;;;17.70;58.00;;;;;;5047477;28;20076;-78
2023/05/24 11:02:50;;;;;;;3.40;1.73;;;17.70;58.00;;;;;;5047326;28;20038;-78
2023/05/24 11:05:17;;;;;;;4.03;1.90;;;17.70;57.90;;;;;;5015312;28;20026;-78
2023/05/24 11:07:43;;;;;;;2.33;1.58;;;17.70;57.90;;;;;;5030641;28;20053;-78
2023/05/24 11:10:15;;;;;;;2.70;1.60;;;17.80;57.90;;;;;;5013881;28;20034;-76
2023/05/24 11:12:43;;;;;;;2.85;1.63;;;17.80;58.00;;;;;;5030389;28;20108;-77
2023/05/24 11:15:10;;;;;;;2.58;1.67;;;17.90;58.00;;;;;;5014388;28;20084;-76
2023/05/24 11:18:16;;;;;;;3.83;1.88;;;17.90;58.00;;;;;;5013778;28;20051;-76
2023/05/24 11:20:43;;;;;;;;;;;18.00;58.10;;;;;;5015563;28;20544;-76
2023/05/24 11:23:08;;;;;;;1.95;1.50;;;18.00;57.80;;;;;;5014004;28;19917;-75
2023/05/24 11:25:38;;;;;;;2.42;1.65;;;18.10;57.80;;;;;;5014308;28;20096;-75
2023/05/24 11:28:09;;;;;;;3.80;1.70;;;18.10;58.00;;;;;;5014543;28;20494;-76
2023/05/24 11:30:42;;;;;;;2.45;1.55;;;18.10;58.00;;;;;;5014850;28;20113;-76
2023/05/24 11:33:19;;;;;;;3.90;1.67;;;18.20;58.00;;;;;;5029685;28;20033;-76
2023/05/24 11:35:46;;;;;;;3.40;1.55;;;18.20;57.90;;;;;;5046762;28;20116;-77
2023/05/24 11:38:13;;;;;;;3.60;1.60;;;18.30;57.90;;;;;;4996743;28;20096;-77
2023/05/24 11:40:44;;;;;;;3.75;1.75;;;18.30;57.80;;;;;;5014472;28;20044;-76
2023/05/24 11:43:14;;;;;;;4.82;1.90;;;18.40;57.80;;;;;;5013673;28;20088;-76
2023/05/24 11:45:42;;;;;;;2.30;1.63;;;18.50;57.70;;;;;;5014816;28;20030;-77
2023/05/24 11:48:11;;;;;;;4.03;1.75;;;18.50;57.60;;;;;;4997086;28;20131;-77
2023/05/24 11:50:40;;;;;;;3.80;1.80;;;18.60;57.60;;;;;;4996728;28;20041;-77
2023/05/24 11:53:09;;;;;;;3.03;1.63;;;18.60;57.60;;;;;;5029346;28;20036;-77
2023/05/24 11:55:35;;;;;;;3.17;1.70;;;18.70;57.60;;;;;;5046331;28;20030;-77
2023/05/24 11:58:05;;;;;;;3.17;1.50;;;18.70;57.50;;;;;;5012925;28;20053;-77
2023/05/24 12:00:31;;;;;;;2.58;1.50;;;18.70;57.50;;;;;;5014580;28;20034;-76
2023/05/24 12:03:00;;;;;;;3.22;1.83;;;18.80;57.40;;;;;;4996893;28;20383;-76
2023/05/24 12:05:30;;;;;;;3.47;1.60;;;18.80;57.40;;;;;;5013143;28;20038;-76
2023/05/24 12:08:07;;;;;;;3.00;1.88;;;18.90;57.40;;;;;;5013872;28;20093;-75
2023/05/24 12:10:37;;;;;;;3.00;1.73;;;18.90;57.40;;;;;;5014660;28;20128;-74
2023/05/24 12:13:05;;;;;;;2.08;1.60;;;19.00;57.40;;;;;;5029925;28;20454;-75
2023/05/24 12:15:32;;;;;;;2.65;1.75;;;19.10;57.30;;;;;;5013224;28;20034;-74
2023/05/24 12:17:58;;;;;;;2.95;1.50;;;19.10;57.20;;;;;;5014023;28;20029;-75
2023/05/24 12:20:27;;;;;;;2.72;1.40;;;19.10;57.20;;;;;;5016831;28;20037;-74
2023/05/24 12:22:54;;;;;;;2.53;1.50;;;19.20;57.20;;;;;;5013866;28;20022;-74
2023/05/24 12:25:22;;;;;;;2.97;1.50;;;19.20;57.10;;;;;;5028954;28;20088;-74
2023/05/24 12:27:55;;;;;;;3.05;1.50;;;19.20;57.10;;;;;;5014273;28;20030;-74
2023/05/24 12:30:27;;;;;;;3.38;1.70;;;19.30;57.10;;;;;;5028902;28;20037;-75
2023/05/24 12:32:53;;;;;;;2.88;1.65;;;19.30;57.00;;;;;;4996586;28;20092;-75
2023/05/24 12:35:20;;;;;;;4.55;1.83;;;19.40;57.00;;;;;;5013835;28;20030;-75
2023/05/24 12:37:47;;;;;;;3.22;1.70;;;19.40;56.90;;;;;;5013584;28;20026;-76
2023/05/24 12:40:22;;;;;;;2.53;1.40;;;19.40;56.80;;;;;;5028967;28;20076;-79
2023/05/24 12:42:53;;;;;;;2.75;1.65;;;19.50;56.80;;;;;;5013156;28;20497;-79
2023/05/24 12:45:24;;;;;;;3.40;1.63;;;19.50;56.70;;;;;;5014456;28;20033;-79
2023/05/24 12:48:01;;;;;;;2.92;1.60;;;19.50;56.70;;;;;;5013247;28;20060;-79
2023/05/24 12:50:27;;;;;;;2.20;1.52;;;19.60;56.80;;;;;;5013450;28;20049;-78
2023/05/24 12:52:53;;;;;;;3.25;1.70;;;19.60;56.60;;;;;;5012306;28;20386;-79